Atlas Wind — 9HA2547 — position and weather

sailwx.info

Track history (hours):
 
Tides and Currents Weather Stations Pressure Air Temp Water Temp Dewpoint Dewpoint Depression Visibility Wind Speed Wind Dir Waves Ship Positions

Atlas Wind

Last reported at 2017-Sep-23 22:05 UTC. Time now 2017-Sep-25 06:30 UTC.
Position N 37°37' E 023°56'.

Length 100 m; draft 5.9 m.

Type: Cargo ship. MMSI: 248848000.

Date/timePositionNaut miles runAvg speedWind from/ knotsBaromVisibWave heightAir tempDewpointWater temp
2017-Sep-23 22:05N 37°37' E 023°56'111.4
2017-Sep-23 21:59N 37°37' E 023°55'611.3
2017-Sep-23 21:28N 37°38' E 023°48'511.2
2017-Sep-23 21:00N 37°38' E 023°41'511.0
2017-Sep-23 20:30N 37°39' E 023°34'611.2
2017-Sep-23 20:00N 37°39' E 023°27'38 0.8
2017-Sep-21 18:51N 38°09' E 022°58'511.8
2017-Sep-21 18:27N 38°06' E 022°53'15 5.5
2017-Sep-21 15:48N 37°54' E 023°04'3 9.5
2017-Sep-21 15:29N 37°52' E 023°07'510.4
2017-Sep-21 15:00N 37°49' E 023°12'610.4
2017-Sep-21 14:28N 37°44' E 023°16'510.0
2017-Sep-21 13:59N 37°40' E 023°19'611.2
2017-Sep-21 13:29N 37°39' E 023°26'611.5
2017-Sep-21 13:00N 37°39' E 023°33'612.0
2017-Sep-21 12:30N 37°38' E 023°40'611.7
2017-Sep-21 12:00N 37°38' E 023°47'611.4
2017-Sep-21 11:30N 37°37' E 023°55'810.7
2017-Sep-21 10:43N 37°37' E 024°05'1110.8
2017-Sep-21 09:42N 37°44' E 024°16'  
2017-Sep-16 15:16N 39°47' E 023°12'1811.5
2017-Sep-16 13:41N 39°30' E 023°22'311.7
2017-Sep-16 13:25N 39°27' E 023°24'113 8.0
2017-Sep-15 23:14N 37°37' E 023°57'211.2
2017-Sep-15 23:00N 37°37' E 023°54'611.1
2017-Sep-15 22:30N 37°38' E 023°47'510.9
2017-Sep-15 22:00N 37°38' E 023°40'510.6
2017-Sep-15 21:30N 37°39' E 023°33'610.8
2017-Sep-15 20:59N 37°39' E 023°26'510.9
2017-Sep-15 20:30N 37°40' E 023°20'5 9.1
2017-Sep-15 20:00N 37°44' E 023°16'611.1
2017-Sep-15 19:30N 37°48' E 023°13'510.6
2017-Sep-15 19:00N 37°52' E 023°08'611.1
2017-Sep-15 18:30N 37°54' E 023°02'13 5.5
2017-Sep-15 16:10N 38°05' E 022°53'310.7
2017-Sep-15 15:56N 38°07' E 022°55'  
Track history (hours):
 
Tides and Currents Weather Stations Pressure Air Temp Water Temp Dewpoint Dewpoint Depression Visibility Wind Speed Wind Dir Waves Ship Positions

Atlas Wind

Last reported at 2017-Sep-23 22:05 UTC. Time now 2017-Sep-25 06:30 UTC.
Position N 37°37' E 023°56'.

Length 100 m; draft 5.9 m.

Type: Cargo ship. MMSI: 248848000.

Date/timePositionNaut miles runAvg speedWind from/ knotsBaromVisibWave heightAir tempDewpointWater temp
2017-Sep-23 22:05N 37°37' E 023°56'111.4
2017-Sep-23 21:59N 37°37' E 023°55'611.3
2017-Sep-23 21:28N 37°38' E 023°48'511.2
2017-Sep-23 21:00N 37°38' E 023°41'511.0
2017-Sep-23 20:30N 37°39' E 023°34'611.2
2017-Sep-23 20:00N 37°39' E 023°27'38 0.8
2017-Sep-21 18:51N 38°09' E 022°58'511.8
2017-Sep-21 18:27N 38°06' E 022°53'15 5.5
2017-Sep-21 15:48N 37°54' E 023°04'3 9.5
2017-Sep-21 15:29N 37°52' E 023°07'510.4
2017-Sep-21 15:00N 37°49' E 023°12'610.4
2017-Sep-21 14:28N 37°44' E 023°16'510.0
2017-Sep-21 13:59N 37°40' E 023°19'611.2
2017-Sep-21 13:29N 37°39' E 023°26'611.5
2017-Sep-21 13:00N 37°39' E 023°33'612.0
2017-Sep-21 12:30N 37°38' E 023°40'611.7
2017-Sep-21 12:00N 37°38' E 023°47'611.4
2017-Sep-21 11:30N 37°37' E 023°55'810.7
2017-Sep-21 10:43N 37°37' E 024°05'1110.8
2017-Sep-21 09:42N 37°44' E 024°16'  
2017-Sep-16 15:16N 39°47' E 023°12'1811.5
2017-Sep-16 13:41N 39°30' E 023°22'311.7
2017-Sep-16 13:25N 39°27' E 023°24'113 8.0
2017-Sep-15 23:14N 37°37' E 023°57'211.2
2017-Sep-15 23:00N 37°37' E 023°54'611.1
2017-Sep-15 22:30N 37°38' E 023°47'510.9
2017-Sep-15 22:00N 37°38' E 023°40'510.6
2017-Sep-15 21:30N 37°39' E 023°33'610.8
2017-Sep-15 20:59N 37°39' E 023°26'510.9
2017-Sep-15 20:30N 37°40' E 023°20'5 9.1
2017-Sep-15 20:00N 37°44' E 023°16'611.1
2017-Sep-15 19:30N 37°48' E 023°13'510.6
2017-Sep-15 19:00N 37°52' E 023°08'611.1
2017-Sep-15 18:30N 37°54' E 023°02'13 5.5
2017-Sep-15 16:10N 38°05' E 022°53'310.7
2017-Sep-15 15:56N 38°07' E 022°55'  

Dump ship's entire track history